To NAV CANADA Home Page Login to a new session Search on AWWS site Feedback and Comments Disclaimer Vers la page française équivalente Tips FAQ What's new on the site To the Forecasts and Observations / NOTAM section To "File a Flight Plan" website Publications and other links Update of the User's profile FIC Telephone Numbers My Weather Data Folder Route Weather Data Regional Weather Data Local Weather Data To the Forecasts and Observations / NOTAM section
Request Generated 05/28/2016 at 05:47:52 UTC . Weather information available at that time is displayed.

METAR/TAF

BAKER LAKE/NU    

METAR CYBK 280500Z 24007KT 20SM FEW080 M02/M03 A3024 RMK AC1 SLP244=
METAR CYBK 280400Z 23008KT 20SM FEW080 M01/M02 A3024 RMK AC2 SLP243=
METAR CYBK 280300Z 23006KT 15SM SCT080 00/M01 A3023 RMK AC4 SLP241=

TAF CYBK 280538Z 2806/2818 23008KT P6SM FEW080 SCT180 PROB30
2812/2816 1/2SM FZFG
RMK NXT FCST BY 281200Z=
Your time UTC time
Weather data provided by Environment Canada and NAV CANADA